createdAt,value
2024-03-12T00:00:50.902Z,95327.00
2024-03-12T00:01:51.032Z,95326.00
2024-03-12T00:02:51.027Z,95330.00
2024-03-12T00:03:51.159Z,95328.00
2024-03-12T00:04:51.191Z,95328.00
2024-03-12T00:05:51.271Z,95328.00
2024-03-12T00:06:51.400Z,95326.00
2024-03-12T00:07:51.435Z,95329.00
2024-03-12T00:08:51.493Z,95332.00
2024-03-12T00:09:51.631Z,95333.00
2024-03-12T00:10:51.723Z,95334.00
2024-03-12T00:11:51.821Z,95332.00
2024-03-12T00:12:51.902Z,95334.00
2024-03-12T00:13:51.969Z,95332.00
2024-03-12T00:14:52.061Z,95332.00
2024-03-12T00:15:52.151Z,95335.00
2024-03-12T00:16:52.199Z,95334.00
2024-03-12T00:17:52.323Z,95334.00
2024-03-12T00:18:54.074Z,95331.00
2024-03-12T00:19:52.371Z,95332.00
2024-03-12T00:20:52.436Z,95333.00
2024-03-12T00:21:52.445Z,95334.00
2024-03-12T00:22:52.437Z,95338.00
2024-03-12T00:23:52.468Z,95339.00
2024-03-12T00:24:52.600Z,95340.00
2024-03-12T00:25:52.564Z,95339.00
2024-03-12T00:26:52.641Z,95339.00
2024-03-12T00:27:52.784Z,95340.00
2024-03-12T00:28:52.806Z,95343.00
2024-03-12T00:29:52.872Z,95344.00
2024-03-12T00:30:52.963Z,95347.00
2024-03-12T00:31:53.024Z,95346.00
2024-03-12T00:32:53.144Z,95348.00
2024-03-12T00:33:53.267Z,95353.00
2024-03-12T00:34:53.222Z,95353.00
2024-03-12T00:35:53.319Z,95353.00
2024-03-12T00:36:53.420Z,95352.00
2024-03-12T00:37:53.494Z,95355.00
2024-03-12T00:38:53.532Z,95358.00
2024-03-12T00:39:53.646Z,95362.00
2024-03-12T00:40:53.686Z,95363.00
2024-03-12T00:41:53.748Z,95364.00
2024-03-12T00:42:53.878Z,95363.00
2024-03-12T00:43:53.932Z,95363.00
2024-03-12T00:44:54.017Z,95361.00
2024-03-12T00:45:54.148Z,95363.00
2024-03-12T00:46:54.218Z,95364.00
2024-03-12T00:47:54.339Z,95367.00
2024-03-12T00:48:54.480Z,95371.00
2024-03-12T00:49:57.158Z,95367.00
2024-03-12T00:50:54.526Z,95366.00
2024-03-12T00:51:54.571Z,95366.00
2024-03-12T00:52:54.618Z,95371.00
2024-03-12T00:53:54.542Z,95373.00
2024-03-12T00:54:54.576Z,95373.00
2024-03-12T00:55:54.702Z,95372.00
2024-03-12T00:56:54.534Z,95374.00
2024-03-12T00:57:54.562Z,95373.00
2024-03-12T00:58:54.527Z,95372.00
2024-03-12T00:59:54.546Z,95374.00
2024-03-12T01:00:55.115Z,95375.00
2024-03-12T01:01:54.556Z,95377.00
2024-03-12T01:02:54.546Z,95382.00
2024-03-12T01:03:54.563Z,95380.00
2024-03-12T01:04:54.561Z,95378.00
2024-03-12T01:05:54.552Z,95378.00
2024-03-12T01:06:54.537Z,95380.00
2024-03-12T01:07:54.579Z,95381.00
2024-03-12T01:08:54.578Z,95384.00
2024-03-12T01:09:54.667Z,95386.00
2024-03-12T01:10:54.694Z,95388.00
2024-03-12T01:11:54.600Z,95388.00
2024-03-12T01:12:54.620Z,95390.00
2024-03-12T01:13:54.609Z,95393.00
2024-03-12T01:14:54.586Z,95392.00
2024-03-12T01:15:54.718Z,95391.00
2024-03-12T01:16:54.590Z,95390.00
2024-03-12T01:17:54.756Z,95390.00
2024-03-12T01:18:54.596Z,95390.00
2024-03-12T01:19:54.590Z,95390.00
2024-03-12T01:20:54.589Z,95387.00
2024-03-12T01:21:54.701Z,95386.00
2024-03-12T01:22:54.737Z,95386.00
2024-03-12T01:23:54.841Z,95387.00
2024-03-12T01:24:54.987Z,95390.00
2024-03-12T01:25:54.983Z,95390.00
2024-03-12T01:26:55.074Z,95392.00
2024-03-12T01:27:55.180Z,95394.00
2024-03-12T01:28:55.231Z,95393.00
2024-03-12T01:29:55.316Z,95391.00
2024-03-12T01:30:55.431Z,95395.00
2024-03-12T01:31:55.482Z,95395.00
2024-03-12T01:32:55.621Z,95394.00
2024-03-12T01:33:55.682Z,95395.00
2024-03-12T01:35:00.769Z,95395.00
2024-03-12T01:35:55.727Z,95397.00
2024-03-12T01:36:55.794Z,95399.00
2024-03-12T01:37:56.362Z,95402.00
2024-03-12T01:38:56.066Z,95400.00
2024-03-12T01:39:55.842Z,95398.00
2024-03-12T01:40:55.790Z,95395.00
2024-03-12T01:41:55.803Z,95396.00
2024-03-12T01:42:55.819Z,95395.00
2024-03-12T01:43:55.796Z,95398.00
2024-03-12T01:44:55.786Z,95399.00
2024-03-12T01:45:55.858Z,95401.00
2024-03-12T01:46:55.934Z,95401.00
2024-03-12T01:47:56.200Z,95400.00
2024-03-12T01:48:56.176Z,95400.00
2024-03-12T01:49:56.219Z,95403.00
2024-03-12T01:50:56.303Z,95406.00
2024-03-12T01:51:56.448Z,95409.00
2024-03-12T01:52:56.482Z,95414.00
2024-03-12T01:53:56.565Z,95415.00
2024-03-12T01:54:56.751Z,95416.00
2024-03-12T01:55:56.754Z,95414.00
2024-03-12T01:56:56.843Z,95414.00
2024-03-12T01:57:56.943Z,95413.00
2024-03-12T01:58:57.089Z,95416.00
2024-03-12T01:59:57.128Z,95413.00
2024-03-12T02:00:57.264Z,95415.00
2024-03-12T02:01:57.348Z,95416.00
2024-03-12T02:02:57.342Z,95414.00
2024-03-12T02:03:57.412Z,95415.00
2024-03-12T02:04:57.411Z,95416.00
2024-03-12T02:05:57.460Z,95419.00
2024-03-12T02:06:57.505Z,95421.00
2024-03-12T02:07:57.516Z,95423.00
2024-03-12T02:08:57.521Z,95425.00
2024-03-12T02:09:57.570Z,95425.00
2024-03-12T02:10:57.607Z,95428.00
2024-03-12T02:11:57.647Z,95430.00
2024-03-12T02:12:57.720Z,95430.00
2024-03-12T02:13:57.725Z,95433.00
2024-03-12T02:14:57.737Z,95437.00
2024-03-12T02:15:57.878Z,95440.00
2024-03-12T02:16:57.945Z,95441.00
2024-03-12T02:17:58.142Z,95441.00
2024-03-12T02:18:58.156Z,95443.00
2024-03-12T02:19:58.216Z,95442.00
2024-03-12T02:20:58.323Z,95444.00
2024-03-12T02:21:58.458Z,95445.00
2024-03-12T02:22:58.483Z,95447.00
2024-03-12T02:23:58.591Z,95444.00
2024-03-12T02:24:58.789Z,95443.00
2024-03-12T02:25:58.807Z,95442.00
2024-03-12T02:26:58.881Z,95442.00
2024-03-12T02:27:59.022Z,95443.00
2024-03-12T02:28:59.089Z,95444.00
2024-03-12T02:29:59.219Z,95445.00
2024-03-12T02:30:59.341Z,95448.00
2024-03-12T02:31:59.402Z,95448.00
2024-03-12T02:32:59.545Z,95446.00
2024-03-12T02:33:59.533Z,95446.00
2024-03-12T02:34:59.581Z,95446.00
2024-03-12T02:35:59.677Z,95445.00
2024-03-12T02:36:59.830Z,95442.00
2024-03-12T02:37:59.876Z,95443.00
2024-03-12T02:38:59.984Z,95441.00
2024-03-12T02:40:00.173Z,95442.00
2024-03-12T02:41:00.221Z,95443.00
2024-03-12T02:42:00.302Z,95440.00
2024-03-12T02:43:00.431Z,95442.00
2024-03-12T02:44:00.471Z,95445.00
2024-03-12T02:45:00.576Z,95449.00
2024-03-12T02:46:00.736Z,95452.00
2024-03-12T02:47:00.755Z,95454.00
2024-03-12T02:48:00.939Z,95456.00
2024-03-12T02:49:01.012Z,95455.00
2024-03-12T02:50:01.055Z,95455.00
2024-03-12T02:51:01.132Z,95454.00
2024-03-12T02:52:01.348Z,95452.00
2024-03-12T02:53:01.342Z,95450.00
2024-03-12T02:54:01.431Z,95452.00
2024-03-12T02:55:01.585Z,95453.00
2024-03-12T02:56:01.636Z,95455.00
2024-03-12T02:57:01.719Z,95455.00
2024-03-12T02:58:01.889Z,95452.00
2024-03-12T02:59:01.895Z,95454.00
2024-03-12T03:00:01.962Z,95457.00
2024-03-12T03:01:02.256Z,95456.00
2024-03-12T03:02:02.276Z,95456.00
2024-03-12T03:03:02.246Z,95458.00
2024-03-12T03:04:02.416Z,95454.00
2024-03-12T03:05:02.400Z,95456.00
2024-03-12T03:06:02.487Z,95454.00
2024-03-12T03:07:02.668Z,95454.00
2024-03-12T03:08:02.652Z,95453.00
2024-03-12T03:09:02.767Z,95452.00
2024-03-12T03:10:02.935Z,95452.00
2024-03-12T03:11:02.977Z,95452.00
2024-03-12T03:12:03.056Z,95451.00
2024-03-12T03:13:03.228Z,95450.00
2024-03-12T03:14:03.243Z,95447.00
2024-03-12T03:15:03.335Z,95447.00
2024-03-12T03:16:03.453Z,95447.00
2024-03-12T03:17:03.544Z,95449.00
2024-03-12T03:18:03.657Z,95449.00
2024-03-12T03:19:03.791Z,95450.00
2024-03-12T03:20:03.812Z,95450.00
2024-03-12T03:21:03.913Z,95450.00
2024-03-12T03:22:04.129Z,95451.00
2024-03-12T03:23:04.122Z,95449.00
2024-03-12T03:24:04.195Z,95449.00
2024-03-12T03:25:04.362Z,95450.00
2024-03-12T03:26:04.374Z,95450.00
2024-03-12T03:27:04.483Z,95453.00
2024-03-12T03:28:04.673Z,95453.00
2024-03-12T03:29:04.909Z,95455.00
2024-03-12T03:30:04.775Z,95457.00
2024-03-12T03:31:04.896Z,95458.00
2024-03-12T03:32:04.968Z,95458.00
2024-03-12T03:33:05.100Z,95459.00
2024-03-12T03:34:05.321Z,95461.00
2024-03-12T03:35:05.247Z,95463.00
2024-03-12T03:36:05.330Z,95465.00
2024-03-12T03:37:05.436Z,95465.00
2024-03-12T03:38:05.515Z,95466.00
2024-03-12T03:39:05.608Z,95463.00
2024-03-12T03:40:05.869Z,95461.00
2024-03-12T03:41:05.793Z,95464.00
2024-03-12T03:42:05.885Z,95465.00
2024-03-12T03:43:06.023Z,95465.00
2024-03-12T03:44:06.077Z,95468.00
2024-03-12T03:45:06.185Z,95469.00
2024-03-12T03:46:06.368Z,95469.00
2024-03-12T03:47:06.460Z,95470.00
2024-03-12T03:48:06.500Z,95468.00
2024-03-12T03:49:06.652Z,95472.00
2024-03-12T03:50:06.659Z,95469.00
2024-03-12T03:51:06.789Z,95469.00
2024-03-12T03:52:06.923Z,95471.00
2024-03-12T03:53:06.963Z,95472.00
2024-03-12T03:54:07.026Z,95472.00
2024-03-12T03:55:07.190Z,95476.00
2024-03-12T03:56:07.207Z,95477.00
2024-03-12T03:57:07.367Z,95477.00
2024-03-12T03:58:07.443Z,95479.00
2024-03-12T03:59:07.481Z,95478.00
2024-03-12T04:00:07.572Z,95479.00
2024-03-12T04:01:07.723Z,95477.00
2024-03-12T04:02:07.724Z,95479.00
2024-03-12T04:03:07.852Z,95478.00
2024-03-12T04:04:07.983Z,95480.00
2024-03-12T04:05:07.998Z,95483.00
2024-03-12T04:06:08.188Z,95483.00
2024-03-12T04:07:08.247Z,95485.00
2024-03-12T04:08:08.290Z,95488.00
2024-03-12T04:09:08.368Z,95492.00
2024-03-12T04:10:08.559Z,95494.00
2024-03-12T04:11:08.641Z,95494.00
2024-03-12T04:12:08.650Z,95491.00
2024-03-12T04:13:08.802Z,95491.00
2024-03-12T04:14:08.852Z,95490.00
2024-03-12T04:15:08.936Z,95489.00
2024-03-12T04:16:09.089Z,95491.00
2024-03-12T04:17:09.095Z,95491.00
2024-03-12T04:18:09.224Z,95496.00
2024-03-12T04:19:09.334Z,95500.00
2024-03-12T04:20:09.388Z,95502.00
2024-03-12T04:21:09.463Z,95502.00
2024-03-12T04:22:09.604Z,95505.00
2024-03-12T04:23:09.686Z,95506.00
2024-03-12T04:24:09.731Z,95508.00
2024-03-12T04:25:10.267Z,95511.00
2024-03-12T04:26:09.873Z,95515.00
2024-03-12T04:27:09.945Z,95516.00
2024-03-12T04:28:10.051Z,95520.00
2024-03-12T04:29:10.088Z,95522.00
2024-03-12T04:30:10.199Z,95524.00
2024-03-12T04:31:10.299Z,95523.00
2024-03-12T04:32:10.344Z,95526.00
2024-03-12T04:33:10.466Z,95526.00
2024-03-12T04:34:10.633Z,95528.00
2024-03-12T04:35:10.864Z,95527.00
2024-03-12T04:36:10.705Z,95528.00
2024-03-12T04:37:10.838Z,95530.00
2024-03-12T04:38:13.873Z,95534.00
2024-03-12T04:39:21.766Z,95535.00
2024-03-12T04:40:21.855Z,95537.00
2024-03-12T04:41:22.185Z,95539.00
2024-03-12T04:42:21.783Z,95538.00
2024-03-12T04:43:21.854Z,95539.00
2024-03-12T04:44:21.775Z,95539.00
2024-03-12T04:45:21.770Z,95540.00
2024-03-12T04:46:21.792Z,95542.00
2024-03-12T04:47:21.776Z,95548.00
2024-03-12T04:48:21.822Z,95550.00
2024-03-12T04:49:21.783Z,95550.00
2024-03-12T04:50:21.794Z,95557.00
2024-03-12T04:51:21.775Z,95561.00
2024-03-12T04:52:21.772Z,95562.00
2024-03-12T04:53:23.636Z,95565.00
2024-03-12T04:54:21.782Z,95567.00
2024-03-12T04:55:21.780Z,95569.00
2024-03-12T04:56:21.784Z,95572.00
2024-03-12T04:57:21.827Z,95573.00
2024-03-12T04:58:21.793Z,95574.00
2024-03-12T04:59:21.793Z,95572.00
2024-03-12T05:00:21.838Z,95572.00
2024-03-12T05:01:21.935Z,95569.00
2024-03-12T05:02:21.805Z,95567.00
2024-03-12T05:03:21.819Z,95565.00
2024-03-12T05:04:23.549Z,95565.00
2024-03-12T05:05:21.790Z,95568.00
2024-03-12T05:06:21.803Z,95566.00
2024-03-12T05:07:21.803Z,95566.00
2024-03-12T05:08:21.905Z,95568.00
2024-03-12T05:09:22.006Z,95567.00
2024-03-12T05:10:22.190Z,95568.00
2024-03-12T05:11:22.205Z,95567.00
2024-03-12T05:12:22.285Z,95572.00
2024-03-12T05:13:22.359Z,95577.00
2024-03-12T05:14:22.459Z,95580.00
2024-03-12T05:15:22.632Z,95584.00
2024-03-12T05:16:25.443Z,95584.00
2024-03-12T05:17:22.623Z,95583.00
2024-03-12T05:18:22.635Z,95591.00
2024-03-12T05:19:22.642Z,95595.00
2024-03-12T05:20:22.648Z,95597.00
2024-03-12T05:21:22.648Z,95599.00
2024-03-12T05:22:22.676Z,95596.00
2024-03-12T05:23:22.646Z,95597.00
2024-03-12T05:24:22.655Z,95601.00
2024-03-12T05:25:22.661Z,95606.00
2024-03-12T05:26:22.673Z,95609.00
2024-03-12T05:27:22.689Z,95612.00
2024-03-12T05:28:22.669Z,95613.00
2024-03-12T05:29:22.674Z,95615.00
2024-03-12T05:30:22.660Z,95616.00
2024-03-12T05:31:22.670Z,95616.00
2024-03-12T05:32:22.675Z,95618.00
2024-03-12T05:33:22.667Z,95620.00
2024-03-12T05:34:22.691Z,95617.00
2024-03-12T05:35:22.729Z,95621.00
2024-03-12T05:36:22.672Z,95619.00
2024-03-12T05:37:22.721Z,95621.00
2024-03-12T05:38:22.669Z,95619.00
2024-03-12T05:39:22.677Z,95616.00
2024-03-12T05:40:22.703Z,95614.00
2024-03-12T05:41:22.698Z,95612.00
2024-03-12T05:42:22.722Z,95614.00
2024-03-12T05:43:22.705Z,95616.00
2024-03-12T05:44:22.715Z,95617.00
2024-03-12T05:45:22.730Z,95617.00
2024-03-12T05:46:22.773Z,95616.00
2024-03-12T05:47:22.709Z,95615.00
2024-03-12T05:48:22.715Z,95617.00
2024-03-12T05:49:22.776Z,95618.00
2024-03-12T05:50:22.741Z,95617.00
2024-03-12T05:51:22.702Z,95618.00
2024-03-12T05:52:22.716Z,95613.00
2024-03-12T05:53:22.707Z,95613.00
2024-03-12T05:54:22.717Z,95613.00
2024-03-12T05:55:22.718Z,95614.00
2024-03-12T05:56:22.728Z,95616.00
2024-03-12T05:57:22.721Z,95620.00
2024-03-12T05:58:22.731Z,95624.00
2024-03-12T05:59:22.730Z,95625.00
2024-03-12T06:00:22.797Z,95627.00
2024-03-12T06:01:22.962Z,95629.00
2024-03-12T06:02:22.980Z,95625.00
2024-03-12T06:03:23.069Z,95627.00
2024-03-12T06:04:23.213Z,95632.00
2024-03-12T06:05:23.240Z,95633.00
2024-03-12T06:06:23.335Z,95635.00
2024-03-12T06:07:23.503Z,95636.00
2024-03-12T06:08:23.514Z,95641.00
2024-03-12T06:09:23.619Z,95644.00
2024-03-12T06:10:23.815Z,95648.00
2024-03-12T06:11:23.858Z,95653.00
2024-03-12T06:12:23.876Z,95655.00
2024-03-12T06:13:23.969Z,95659.00
2024-03-12T06:14:24.064Z,95663.00
2024-03-12T06:15:24.143Z,95667.00
2024-03-12T06:16:24.266Z,95672.00
2024-03-12T06:17:24.400Z,95672.00
2024-03-12T06:18:24.426Z,95676.00
2024-03-12T06:19:24.489Z,95678.00
2024-03-12T06:20:24.612Z,95683.00
2024-03-12T06:21:33.025Z,95685.00
2024-03-12T06:22:24.695Z,95689.00
2024-03-12T06:23:24.915Z,95691.00
2024-03-12T06:24:24.706Z,95693.00
2024-03-12T06:25:24.731Z,95694.00
2024-03-12T06:26:24.713Z,95695.00
2024-03-12T06:27:24.752Z,95696.00
2024-03-12T06:28:24.776Z,95693.00
2024-03-12T06:29:24.809Z,95696.00
2024-03-12T06:30:24.813Z,95695.00
2024-03-12T06:31:24.946Z,95695.00
2024-03-12T06:32:24.845Z,95689.00
2024-03-12T06:33:24.863Z,95690.00
2024-03-12T06:34:24.944Z,95691.00
2024-03-12T06:35:24.993Z,95693.00
2024-03-12T06:36:25.109Z,95697.00
2024-03-12T06:37:25.178Z,95696.00
2024-03-12T06:38:25.256Z,95699.00
2024-03-12T06:39:25.331Z,95700.00
2024-03-12T06:40:25.438Z,95694.00
2024-03-12T06:41:25.507Z,95690.00
2024-03-12T06:42:25.612Z,95692.00
2024-03-12T06:43:25.686Z,95695.00
2024-03-12T06:44:25.774Z,95696.00
2024-03-12T06:45:25.875Z,95698.00
2024-03-12T06:46:25.980Z,95700.00
2024-03-12T06:47:26.064Z,95694.00
2024-03-12T06:48:26.234Z,95694.00
2024-03-12T06:49:26.183Z,95694.00
2024-03-12T06:50:26.288Z,95693.00
2024-03-12T06:51:26.428Z,95697.00
2024-03-12T06:52:26.464Z,95699.00
2024-03-12T06:53:26.616Z,95701.00
2024-03-12T06:54:26.654Z,95704.00
2024-03-12T06:55:26.765Z,95706.00
2024-03-12T06:56:26.776Z,95705.00
2024-03-12T06:57:26.877Z,95707.00
2024-03-12T06:58:26.954Z,95709.00
2024-03-12T06:59:27.054Z,95709.00
2024-03-12T07:00:27.176Z,95710.00
2024-03-12T07:01:27.266Z,95713.00
2024-03-12T07:02:27.326Z,95719.00
2024-03-12T07:03:27.452Z,95727.00
2024-03-12T07:04:27.546Z,95734.00
2024-03-12T07:05:27.588Z,95741.00
2024-03-12T07:06:27.718Z,95742.00
2024-03-12T07:07:27.795Z,95741.00
2024-03-12T07:08:27.872Z,95743.00
2024-03-12T07:09:27.996Z,95746.00
2024-03-12T07:10:28.211Z,95747.00
2024-03-12T07:11:28.156Z,95746.00
2024-03-12T07:12:28.262Z,95742.00
2024-03-12T07:13:28.302Z,95739.00
2024-03-12T07:14:28.400Z,95741.00
2024-03-12T07:15:28.508Z,95740.00
2024-03-12T07:16:28.519Z,95743.00
2024-03-12T07:17:31.284Z,95742.00
2024-03-12T07:18:28.694Z,95742.00
2024-03-12T07:19:28.613Z,95741.00
2024-03-12T07:20:28.615Z,95743.00
2024-03-12T07:21:28.694Z,95743.00
2024-03-12T07:22:28.677Z,95740.00
2024-03-12T07:23:28.678Z,95739.00
2024-03-12T07:24:28.724Z,95740.00
2024-03-12T07:25:28.676Z,95740.00
2024-03-12T07:26:28.676Z,95741.00
2024-03-12T07:27:28.704Z,95740.00
2024-03-12T07:28:28.744Z,95741.00
2024-03-12T07:29:28.699Z,95741.00
2024-03-12T07:30:28.728Z,95740.00
2024-03-12T07:31:28.694Z,95742.00
2024-03-12T07:32:28.718Z,95746.00
2024-03-12T07:33:28.730Z,95743.00
2024-03-12T07:34:28.773Z,95742.00
2024-03-12T07:35:28.698Z,95744.00
2024-03-12T07:36:28.731Z,95744.00
2024-03-12T07:37:28.689Z,95741.00
2024-03-12T07:38:28.753Z,95739.00
2024-03-12T07:39:28.717Z,95739.00
2024-03-12T07:40:28.807Z,95740.00
2024-03-12T07:41:28.708Z,95740.00
2024-03-12T07:42:28.761Z,95740.00
2024-03-12T07:43:28.706Z,95740.00
2024-03-12T07:44:28.710Z,95742.00
2024-03-12T07:45:29.192Z,95745.00
2024-03-12T07:46:28.727Z,95746.00
2024-03-12T07:47:28.703Z,95751.00
2024-03-12T07:48:28.799Z,95753.00
2024-03-12T07:49:28.741Z,95756.00
2024-03-12T07:50:28.716Z,95758.00
2024-03-12T07:51:28.740Z,95760.00
2024-03-12T07:52:28.723Z,95760.00
2024-03-12T07:53:28.722Z,95760.00
2024-03-12T07:54:28.749Z,95762.00
2024-03-12T07:55:28.784Z,95761.00
2024-03-12T07:56:28.886Z,95763.00
2024-03-12T07:57:28.991Z,95765.00
2024-03-12T07:58:29.053Z,95768.00
2024-03-12T07:59:29.148Z,95770.00
2024-03-12T08:00:29.290Z,95771.00
2024-03-12T08:01:29.340Z,95772.00
2024-03-12T08:02:29.377Z,95771.00
2024-03-12T08:03:29.830Z,95774.00
2024-03-12T08:04:29.547Z,95773.00
2024-03-12T08:05:32.213Z,95772.00
2024-03-12T08:06:29.736Z,95775.00
2024-03-12T08:07:29.627Z,95781.00
2024-03-12T08:08:29.634Z,95782.00
2024-03-12T08:09:29.693Z,95781.00
2024-03-12T08:10:29.649Z,95782.00
2024-03-12T08:11:29.634Z,95782.00
2024-03-12T08:12:29.679Z,95782.00
2024-03-12T08:13:29.648Z,95780.00
2024-03-12T08:14:29.641Z,95781.00
2024-03-12T08:15:29.675Z,95779.00
2024-03-12T08:16:29.652Z,95783.00
2024-03-12T08:17:29.988Z,95783.00
2024-03-12T08:18:29.722Z,95785.00
2024-03-12T08:19:29.697Z,95784.00
2024-03-12T08:20:29.684Z,95785.00
2024-03-12T08:21:29.843Z,95786.00
2024-03-12T08:22:29.698Z,95787.00
2024-03-12T08:23:29.665Z,95788.00
2024-03-12T08:24:29.723Z,95787.00
2024-03-12T08:25:31.554Z,95788.00
2024-03-12T08:26:29.681Z,95784.00
2024-03-12T08:27:29.866Z,95787.00
2024-03-12T08:28:29.693Z,95784.00
2024-03-12T08:29:29.732Z,95785.00
2024-03-12T08:30:32.408Z,95786.00
2024-03-12T08:31:33.453Z,95789.00
2024-03-12T08:32:30.776Z,95789.00
2024-03-12T08:33:29.806Z,95794.00
2024-03-12T08:34:29.757Z,95795.00
2024-03-12T08:35:29.719Z,95796.00
2024-03-12T08:36:29.725Z,95794.00
2024-03-12T08:37:29.741Z,95795.00
2024-03-12T08:38:29.759Z,95791.00
2024-03-12T08:39:30.106Z,95781.00
2024-03-12T08:40:29.791Z,95782.00
2024-03-12T08:41:29.745Z,95781.00
2024-03-12T08:42:29.758Z,95784.00
2024-03-12T08:43:29.791Z,95787.00
2024-03-12T08:44:29.752Z,95788.00
2024-03-12T08:45:29.783Z,95793.00
2024-03-12T08:46:30.089Z,95793.00
2024-03-12T08:47:29.777Z,95795.00
2024-03-12T08:48:29.785Z,95796.00
2024-03-12T08:49:29.776Z,95795.00
2024-03-12T08:50:29.755Z,95793.00
2024-03-12T08:51:29.807Z,95796.00
2024-03-12T08:52:29.848Z,95795.00
2024-03-12T08:53:29.925Z,95797.00
2024-03-12T08:54:30.111Z,95794.00
2024-03-12T08:55:30.222Z,95795.00
2024-03-12T08:56:30.177Z,95795.00
2024-03-12T08:57:30.286Z,95795.00
2024-03-12T08:58:30.352Z,95794.00
2024-03-12T08:59:30.439Z,95794.00
2024-03-12T09:00:30.713Z,95793.00
2024-03-12T09:01:30.733Z,95791.00
2024-03-12T09:02:30.680Z,95793.00
2024-03-12T09:03:30.870Z,95792.00
2024-03-12T09:04:30.878Z,95792.00
2024-03-12T09:05:30.939Z,95792.00
2024-03-12T09:06:31.110Z,95793.00
2024-03-12T09:07:31.121Z,95793.00
2024-03-12T09:08:31.183Z,95794.00
2024-03-12T09:09:31.316Z,95793.00
2024-03-12T09:10:31.471Z,95795.00
2024-03-12T09:11:31.560Z,95797.00
2024-03-12T09:12:31.550Z,95797.00
2024-03-12T09:13:38.843Z,95797.00
2024-03-12T09:14:38.832Z,95799.00
2024-03-12T09:15:38.884Z,95798.00
2024-03-12T09:16:38.898Z,95798.00
2024-03-12T09:17:38.993Z,95798.00
2024-03-12T09:18:38.893Z,95798.00
2024-03-12T09:19:38.847Z,95802.00
2024-03-12T09:20:38.836Z,95804.00
2024-03-12T09:21:38.856Z,95803.00
2024-03-12T09:22:38.853Z,95805.00
2024-03-12T09:23:45.364Z,95806.00
2024-03-12T09:24:39.893Z,95806.00
2024-03-12T09:25:38.838Z,95806.00
2024-03-12T09:26:38.860Z,95806.00
2024-03-12T09:27:38.941Z,95806.00
2024-03-12T09:28:38.860Z,95805.00
2024-03-12T09:29:38.841Z,95803.00
2024-03-12T09:30:38.944Z,95801.00
2024-03-12T09:31:39.768Z,95800.00
2024-03-12T09:32:38.922Z,95800.00
2024-03-12T09:33:38.920Z,95802.00
2024-03-12T09:34:38.893Z,95802.00
2024-03-12T09:35:38.949Z,95803.00
2024-03-12T09:36:38.942Z,95805.00
2024-03-12T09:37:38.893Z,95806.00
2024-03-12T09:38:38.956Z,95806.00
2024-03-12T09:39:39.094Z,95809.00
2024-03-12T09:40:39.126Z,95809.00
2024-03-12T09:41:39.240Z,95809.00
2024-03-12T09:42:39.403Z,95808.00
2024-03-12T09:43:39.379Z,95813.00
2024-03-12T09:44:39.496Z,95812.00
2024-03-12T09:45:39.670Z,95814.00
2024-03-12T09:46:39.652Z,95814.00
2024-03-12T09:47:39.770Z,95815.00
2024-03-12T09:48:39.870Z,95817.00
2024-03-12T09:49:39.927Z,95818.00
2024-03-12T09:50:40.001Z,95817.00
2024-03-12T09:51:40.096Z,95819.00
2024-03-12T09:52:40.236Z,95816.00
2024-03-12T09:53:40.331Z,95816.00
2024-03-12T09:54:40.615Z,95814.00
2024-03-12T09:55:41.184Z,95813.00
2024-03-12T09:56:40.564Z,95814.00
2024-03-12T09:57:40.665Z,95813.00
2024-03-12T09:58:40.757Z,95813.00
2024-03-12T09:59:40.817Z,95814.00
2024-03-12T10:00:40.947Z,95814.00
2024-03-12T10:01:41.013Z,95814.00
2024-03-12T10:02:41.103Z,95815.00
2024-03-12T10:03:41.213Z,95814.00
2024-03-12T10:04:41.284Z,95817.00
2024-03-12T10:05:41.453Z,95816.00
2024-03-12T10:06:41.519Z,95816.00
2024-03-12T10:07:41.550Z,95815.00
2024-03-12T10:08:41.637Z,95814.00
2024-03-12T10:09:41.728Z,95814.00
2024-03-12T10:10:41.865Z,95814.00
2024-03-12T10:11:41.943Z,95815.00
2024-03-12T10:12:42.053Z,95812.00
2024-03-12T10:13:42.091Z,95809.00
2024-03-12T10:14:42.202Z,95810.00
2024-03-12T10:15:42.295Z,95808.00
2024-03-12T10:16:42.369Z,95810.00
2024-03-12T10:17:42.523Z,95811.00
2024-03-12T10:18:42.593Z,95810.00
2024-03-12T10:19:42.631Z,95811.00
2024-03-12T10:20:42.714Z,95812.00
2024-03-12T10:21:42.799Z,95810.00
2024-03-12T10:22:42.888Z,95809.00
2024-03-12T10:23:42.953Z,95809.00
2024-03-12T10:24:43.089Z,95809.00
2024-03-12T10:25:43.152Z,95805.00
2024-03-12T10:26:43.287Z,95803.00
2024-03-12T10:27:45.865Z,95804.00
2024-03-12T10:28:44.403Z,95805.00
2024-03-12T10:29:43.322Z,95804.00
2024-03-12T10:30:43.369Z,95805.00
2024-03-12T10:31:43.319Z,95804.00
2024-03-12T10:32:43.357Z,95805.00
2024-03-12T10:33:43.452Z,95805.00
2024-03-12T10:34:43.353Z,95806.00
2024-03-12T10:35:43.353Z,95806.00
2024-03-12T10:36:43.494Z,95806.00
2024-03-12T10:37:43.369Z,95804.00
2024-03-12T10:38:43.355Z,95806.00
2024-03-12T10:39:43.421Z,95804.00
2024-03-12T10:40:43.486Z,95802.00
2024-03-12T10:41:43.573Z,95805.00
2024-03-12T10:42:43.683Z,95805.00
2024-03-12T10:43:43.753Z,95803.00
2024-03-12T10:44:43.860Z,95804.00
2024-03-12T10:45:43.968Z,95801.00
2024-03-12T10:46:44.022Z,95798.00
2024-03-12T10:47:44.144Z,95798.00
2024-03-12T10:48:44.221Z,95796.00
2024-03-12T10:49:44.286Z,95799.00
2024-03-12T10:50:44.395Z,95798.00
2024-03-12T10:51:44.615Z,95795.00
2024-03-12T10:52:44.578Z,95795.00
2024-03-12T10:53:44.662Z,95796.00
2024-03-12T10:54:48.309Z,95796.00
2024-03-12T10:55:45.804Z,95794.00
2024-03-12T10:56:44.762Z,95795.00
2024-03-12T10:57:44.799Z,95796.00
2024-03-12T10:58:44.781Z,95795.00
2024-03-12T10:59:44.812Z,95795.00
2024-03-12T11:00:44.861Z,95794.00
2024-03-12T11:01:44.891Z,95792.00
2024-03-12T11:02:44.801Z,95793.00
2024-03-12T11:03:44.888Z,95794.00
2024-03-12T11:04:44.816Z,95794.00
2024-03-12T11:05:44.804Z,95795.00
2024-03-12T11:06:44.879Z,95795.00
2024-03-12T11:07:44.810Z,95794.00
2024-03-12T11:08:44.822Z,95795.00
2024-03-12T11:09:44.856Z,95795.00
2024-03-12T11:10:44.861Z,95794.00
2024-03-12T11:11:44.840Z,95795.00
2024-03-12T11:12:44.849Z,95792.00
2024-03-12T11:13:44.896Z,95791.00
2024-03-12T11:14:44.992Z,95788.00
2024-03-12T11:15:45.121Z,95786.00
2024-03-12T11:16:45.180Z,95785.00
2024-03-12T11:17:45.296Z,95785.00
2024-03-12T11:18:45.380Z,95783.00
2024-03-12T11:19:45.450Z,95784.00
2024-03-12T11:20:45.568Z,95783.00
2024-03-12T11:21:45.677Z,95781.00
2024-03-12T11:22:45.699Z,95784.00
2024-03-12T11:23:45.814Z,95783.00
2024-03-12T11:24:45.931Z,95781.00
2024-03-12T11:25:49.621Z,95781.00
2024-03-12T11:26:45.972Z,95780.00
2024-03-12T11:27:46.036Z,95781.00
2024-03-12T11:28:45.978Z,95780.00
2024-03-12T11:29:45.990Z,95780.00
2024-03-12T11:30:46.028Z,95780.00
2024-03-12T11:31:45.993Z,95781.00
2024-03-12T11:32:46.014Z,95780.00
2024-03-12T11:33:46.026Z,95778.00
2024-03-12T11:34:45.996Z,95778.00
2024-03-12T11:35:45.996Z,95775.00
2024-03-12T11:36:46.073Z,95776.00
2024-03-12T11:37:46.041Z,95774.00
2024-03-12T11:38:46.125Z,95773.00
2024-03-12T11:39:46.280Z,95771.00
2024-03-12T11:40:46.298Z,95773.00
2024-03-12T11:41:46.406Z,95771.00
2024-03-12T11:42:46.525Z,95770.00
2024-03-12T11:43:46.594Z,95771.00
2024-03-12T11:44:46.670Z,95771.00
2024-03-12T11:45:47.002Z,95770.00